Time;durP1;ratioP1;P1;durP2;ratioP2;P2;SDS_P1;SDS_P2;PMS_P1;PMS_P2;Temp;Humidity;BMP_temperature;BMP_pressure;BME280_temperature;BME280_humidity;BME280_pressure;Samples;Min_cycle;Max_cycle;Signal;HPM_P1;HPM_P2
2022/03/27 00:01:41;;;;;;;23.05;11.60;;;7.70;99.90;;;;;;5055795;28;20040;-61
2022/03/27 00:04:07;;;;;;;29.02;12.82;;;7.70;99.90;;;;;;5054340;28;20070;-60
2022/03/27 00:06:32;;;;;;;30.90;13.57;;;7.70;99.90;;;;;;5055562;28;20108;-61
2022/03/27 00:08:58;;;;;;;27.60;11.45;;;7.70;99.90;;;;;;5054166;28;20032;-61
2022/03/27 00:11:24;;;;;;;27.50;11.77;;;7.60;99.90;;;;;;5055585;28;20017;-60
2022/03/27 00:13:50;;;;;;;25.95;11.50;;;7.60;99.90;;;;;;5054094;28;20502;-61
2022/03/27 00:16:16;;;;;;;32.38;12.98;;;7.60;99.90;;;;;;5054272;28;20022;-61
2022/03/27 00:18:42;;;;;;;25.73;12.40;;;7.60;99.90;;;;;;5054056;28;20024;-60
2022/03/27 00:21:09;;;;;;;30.83;12.30;;;7.60;99.90;;;;;;5053949;28;20194;-59
2022/03/27 00:23:34;;;;;;;27.35;12.85;;;7.50;99.90;;;;;;5055127;28;20406;-57
2022/03/27 00:26:00;;;;;;;33.08;13.88;;;7.60;99.90;;;;;;5054092;28;20116;-60
2022/03/27 00:28:31;;;;;;;29.75;13.15;;;7.60;99.90;;;;;;5054673;28;20463;-59
2022/03/27 00:31:01;;;;;;;25.73;12.63;;;7.50;99.90;;;;;;5053795;28;20017;-61
2022/03/27 00:33:27;;;;;;;25.58;13.48;;;7.50;99.90;;;;;;5054574;28;20041;-60
2022/03/27 00:35:54;;;;;;;31.02;13.63;;;7.50;99.90;;;;;;5053639;28;20025;-60
2022/03/27 00:38:20;;;;;;;34.22;14.40;;;7.40;99.90;;;;;;5055220;28;20053;-58
2022/03/27 00:40:45;;;;;;;32.10;13.85;;;7.50;99.90;;;;;;5054871;28;20032;-60
2022/03/27 00:43:11;;;;;;;27.98;12.95;;;7.50;99.90;;;;;;5053748;28;20028;-60
2022/03/27 00:45:37;;;;;;;25.23;12.00;;;7.40;99.90;;;;;;5054668;28;20024;-60
2022/03/27 00:48:03;;;;;;;33.75;13.00;;;7.40;99.90;;;;;;5055271;28;20094;-60
2022/03/27 00:50:30;;;;;;;26.02;12.65;;;7.40;99.90;;;;;;5054922;28;20029;-60
2022/03/27 00:52:57;;;;;;;28.88;13.55;;;7.40;99.90;;;;;;5054963;28;20021;-61
2022/03/27 00:55:23;;;;;;;28.73;13.02;;;7.40;99.90;;;;;;5053675;28;20057;-61
2022/03/27 00:57:48;;;;;;;28.35;12.65;;;7.40;99.90;;;;;;5053152;28;20056;-61
2022/03/27 01:00:39;;;;;;;33.80;13.32;;;7.40;99.90;;;;;;5053241;28;20411;-61
2022/03/27 01:03:16;;;;;;;26.33;12.68;;;7.30;99.90;;;;;;5052811;28;20509;-59
2022/03/27 01:05:44;;;;;;;22.35;10.90;;;7.30;99.90;;;;;;5054901;28;20415;-60
2022/03/27 01:08:12;;;;;;;34.33;14.48;;;7.30;99.90;;;;;;5052985;28;20033;-61
2022/03/27 01:10:39;;;;;;;24.65;11.98;;;7.20;99.90;;;;;;5052983;28;20053;-60
2022/03/27 01:13:19;;;;;;;24.88;11.57;;;7.20;99.90;;;;;;5053815;28;20083;-58
2022/03/27 01:15:55;;;;;;;29.42;13.18;;;7.10;99.90;;;;;;5052855;28;20047;-57
2022/03/27 01:18:22;;;;;;;25.90;12.05;;;7.00;99.90;;;;;;5054366;28;20032;-59
2022/03/27 01:20:48;;;;;;;24.58;10.93;;;7.00;99.90;;;;;;5054895;28;20060;-59
2022/03/27 01:23:15;;;;;;;32.13;12.77;;;7.00;99.90;;;;;;5053929;28;20108;-59
2022/03/27 01:25:43;;;;;;;25.40;12.90;;;7.00;99.90;;;;;;5054203;28;20036;-60
2022/03/27 01:28:11;;;;;;;27.95;12.80;;;6.90;99.90;;;;;;5054256;28;20029;-60
2022/03/27 01:30:37;;;;;;;24.60;12.10;;;6.90;99.90;;;;;;5052595;28;20108;-60
2022/03/27 01:33:05;;;;;;;23.67;12.23;;;6.90;99.90;;;;;;5052643;28;20109;-60
2022/03/27 01:35:32;;;;;;;30.75;13.75;;;6.80;99.90;;;;;;5052585;28;20054;-60
2022/03/27 01:37:57;;;;;;;28.92;12.70;;;6.70;99.90;;;;;;5052835;28;20047;-60
2022/03/27 01:40:23;;;;;;;26.55;12.75;;;6.70;99.90;;;;;;5053149;28;20033;-60
2022/03/27 01:42:52;;;;;;;29.88;12.57;;;6.60;99.90;;;;;;5053703;28;20025;-59
2022/03/27 01:45:18;;;;;;;26.40;12.00;;;6.60;99.90;;;;;;5052767;28;20032;-61
2022/03/27 01:47:44;;;;;;;28.00;12.85;;;6.70;99.90;;;;;;5052334;28;20032;-60
2022/03/27 01:50:10;;;;;;;28.75;12.82;;;6.70;99.90;;;;;;5052368;28;20029;-61
2022/03/27 01:52:36;;;;;;;28.33;11.75;;;6.70;99.90;;;;;;5052324;28;20032;-60
2022/03/27 01:55:05;;;;;;;27.58;12.75;;;6.60;99.90;;;;;;5053584;28;20021;-61
2022/03/27 01:57:31;;;;;;;30.58;13.15;;;6.70;99.90;;;;;;5052119;28;20056;-60
2022/03/27 01:59:56;;;;;;;29.90;13.07;;;6.70;99.90;;;;;;5053639;28;20101;-60
2022/03/27 02:02:25;;;;;;;26.15;12.90;;;6.60;99.90;;;;;;5053598;28;20112;-56
2022/03/27 02:04:52;;;;;;;27.75;13.25;;;6.60;99.90;;;;;;5051769;28;20112;-61
2022/03/27 02:07:18;;;;;;;24.65;12.10;;;6.60;99.90;;;;;;5053519;28;20021;-60
2022/03/27 02:09:46;;;;;;;30.77;13.55;;;6.70;99.90;;;;;;5053283;28;20070;-61
2022/03/27 02:12:12;;;;;;;28.85;12.38;;;6.70;99.90;;;;;;5052808;28;20033;-60
2022/03/27 02:14:39;;;;;;;29.67;12.70;;;6.70;99.90;;;;;;5052078;28;20032;-60
2022/03/27 02:17:05;;;;;;;31.20;12.40;;;6.60;99.90;;;;;;5052190;28;20032;-60
2022/03/27 02:19:30;;;;;;;25.73;12.35;;;6.70;99.90;;;;;;5053152;28;20475;-60
2022/03/27 02:21:56;;;;;;;26.17;12.63;;;6.60;99.90;;;;;;5053073;28;20025;-56
2022/03/27 02:24:22;;;;;;;28.38;12.70;;;6.60;99.90;;;;;;5051864;28;20484;-60
2022/03/27 02:26:50;;;;;;;28.08;13.15;;;6.50;99.90;;;;;;5051765;28;20025;-61
2022/03/27 02:29:16;;;;;;;31.15;12.90;;;6.40;99.90;;;;;;5051794;28;20036;-60
2022/03/27 02:31:42;;;;;;;25.05;11.70;;;6.30;99.90;;;;;;5053361;28;20033;-58
2022/03/27 02:34:08;;;;;;;36.30;13.45;;;6.40;99.90;;;;;;5052120;28;20025;-59
2022/03/27 02:36:34;;;;;;;35.15;13.80;;;6.30;99.90;;;;;;5052953;28;20104;-60
2022/03/27 02:38:59;;;;;;;29.67;13.07;;;6.30;99.90;;;;;;5052044;28;20024;-59
2022/03/27 02:41:25;;;;;;;29.90;12.73;;;6.20;99.90;;;;;;5053206;28;20021;-59
2022/03/27 02:43:51;;;;;;;23.92;11.57;;;6.30;99.90;;;;;;5053247;28;20017;-60
2022/03/27 02:46:16;;;;;;;31.50;12.93;;;6.40;99.90;;;;;;5052555;28;20021;-61
2022/03/27 02:48:42;;;;;;;28.67;13.02;;;6.40;99.90;;;;;;5053231;28;20022;-60
2022/03/27 02:51:08;;;;;;;27.45;13.32;;;6.40;99.90;;;;;;5052514;28;20020;-59
2022/03/27 02:53:34;;;;;;;33.15;13.25;;;6.40;99.90;;;;;;5053362;28;20044;-61
2022/03/27 02:55:59;;;;;;;31.13;14.35;;;6.30;99.90;;;;;;5051512;28;20052;-60
2022/03/27 02:58:26;;;;;;;24.55;11.13;;;6.30;99.90;;;;;;5052925;28;20029;-60
2022/03/27 03:00:52;;;;;;;28.42;12.35;;;6.20;99.90;;;;;;5052590;28;20082;-60
2022/03/27 03:03:18;;;;;;;25.55;12.73;;;6.20;99.90;;;;;;5051440;28;20108;-60
2022/03/27 03:05:43;;;;;;;28.67;12.27;;;6.20;99.90;;;;;;5051464;28;20171;-61
2022/03/27 03:08:11;;;;;;;24.95;12.65;;;6.10;99.90;;;;;;5052740;28;20025;-60
2022/03/27 03:10:41;;;;;;;20.70;11.55;;;6.10;99.90;;;;;;5052708;28;20017;-59
2022/03/27 03:13:08;;;;;;;26.75;12.30;;;6.10;99.90;;;;;;5052747;28;20021;-59
2022/03/27 03:15:36;;;;;;;28.55;12.43;;;6.10;99.90;;;;;;5053662;28;20025;-59
2022/03/27 03:18:03;;;;;;;24.98;11.60;;;6.10;99.90;;;;;;5056377;28;20475;-60
2022/03/27 03:20:30;;;;;;;31.23;14.00;;;6.10;99.90;;;;;;5055302;28;20036;-61
2022/03/27 03:22:55;;;;;;;26.27;11.50;;;6.00;99.90;;;;;;5056266;28;20024;-61
2022/03/27 03:25:21;;;;;;;25.77;12.15;;;6.00;99.90;;;;;;5054963;28;20070;-61
2022/03/27 03:27:47;;;;;;;23.90;11.90;;;6.00;99.90;;;;;;5054995;28;20025;-60
2022/03/27 03:30:12;;;;;;;26.30;11.90;;;6.00;99.90;;;;;;5054938;28;20017;-61
2022/03/27 03:32:38;;;;;;;26.92;12.13;;;6.00;99.90;;;;;;5055157;28;20387;-60
2022/03/27 03:35:05;;;;;;;29.77;13.07;;;5.90;99.90;;;;;;5056185;28;20021;-60
2022/03/27 03:37:31;;;;;;;30.48;12.70;;;5.90;99.90;;;;;;5055912;28;20029;-61
2022/03/27 03:39:56;;;;;;;28.02;11.43;;;5.80;99.90;;;;;;5054768;28;20029;-61
2022/03/27 03:42:22;;;;;;;25.27;12.25;;;5.70;99.90;;;;;;5055196;28;20032;-59
2022/03/27 03:44:48;;;;;;;29.80;12.63;;;5.70;99.90;;;;;;5055933;28;20025;-60
2022/03/27 03:47:14;;;;;;;27.95;11.95;;;5.80;99.90;;;;;;5054809;28;20112;-61
2022/03/27 03:49:39;;;;;;;26.02;11.32;;;5.80;99.90;;;;;;5056126;28;20044;-61
2022/03/27 03:52:06;;;;;;;25.58;12.45;;;5.80;99.90;;;;;;5055406;28;20031;-60
2022/03/27 03:54:34;;;;;;;22.75;11.88;;;5.70;99.90;;;;;;5054446;28;20449;-61
2022/03/27 03:57:01;;;;;;;24.02;10.82;;;5.80;99.90;;;;;;5055643;28;20021;-61
2022/03/27 03:59:28;;;;;;;26.08;11.93;;;5.80;99.90;;;;;;5055483;28;20029;-61
2022/03/27 04:01:53;;;;;;;22.80;11.40;;;5.80;99.90;;;;;;5055586;28;20021;-60
2022/03/27 04:04:19;;;;;;;26.70;11.23;;;5.70;99.90;;;;;;5056032;28;20024;-61
2022/03/27 04:06:45;;;;;;;25.70;11.70;;;5.70;99.90;;;;;;5054443;28;20543;-60
2022/03/27 04:09:10;;;;;;;25.70;11.88;;;5.70;99.90;;;;;;5054167;28;20115;-61
2022/03/27 04:11:36;;;;;;;31.33;12.82;;;5.70;99.90;;;;;;5054240;28;20025;-61
2022/03/27 04:14:02;;;;;;;33.75;12.05;;;5.60;99.90;;;;;;5054127;28;20023;-61
2022/03/27 04:16:28;;;;;;;27.13;12.23;;;5.70;99.90;;;;;;5054313;28;20018;-61
2022/03/27 04:18:54;;;;;;;25.52;12.05;;;5.70;99.90;;;;;;5055525;28;20072;-61
2022/03/27 04:21:19;;;;;;;27.85;11.82;;;5.60;99.90;;;;;;5054021;28;20025;-61
2022/03/27 04:23:45;;;;;;;24.10;12.07;;;5.60;99.90;;;;;;5055127;28;20032;-60
2022/03/27 04:26:12;;;;;;;23.23;11.88;;;5.60;99.90;;;;;;5053853;28;20022;-59
2022/03/27 04:28:37;;;;;;;26.70;11.15;;;5.60;99.90;;;;;;5053245;28;20025;-61
2022/03/27 04:31:03;;;;;;;21.35;11.23;;;5.60;99.90;;;;;;5055069;28;20021;-60
2022/03/27 04:33:28;;;;;;;26.30;11.90;;;5.70;99.90;;;;;;5055332;28;20054;-60
2022/03/27 04:35:54;;;;;;;26.15;11.70;;;5.60;99.90;;;;;;5055165;28;20036;-60
2022/03/27 04:38:20;;;;;;;23.10;11.85;;;5.50;99.90;;;;;;5054896;28;20029;-61
2022/03/27 04:40:45;;;;;;;25.42;11.88;;;5.50;99.90;;;;;;5054860;28;20056;-60
2022/03/27 04:43:12;;;;;;;25.20;11.70;;;5.50;99.90;;;;;;5054984;28;20029;-61
2022/03/27 04:45:37;;;;;;;27.90;12.07;;;5.50;99.90;;;;;;5055044;28;20017;-61
2022/03/27 04:48:04;;;;;;;24.17;11.80;;;5.50;99.90;;;;;;5054716;28;20021;-61
2022/03/27 04:50:29;;;;;;;26.83;12.70;;;5.50;99.90;;;;;;5053741;28;20025;-60
2022/03/27 04:52:55;;;;;;;28.25;12.55;;;5.50;99.90;;;;;;5054760;28;20032;-60
2022/03/27 04:55:21;;;;;;;24.08;11.13;;;5.50;99.90;;;;;;5054597;28;20384;-60
2022/03/27 04:57:46;;;;;;;30.35;13.25;;;5.50;99.90;;;;;;5054837;28;20079;-60
2022/03/27 05:00:17;;;;;;;28.08;12.57;;;5.50;99.90;;;;;;5053125;28;20143;-59
2022/03/27 05:02:43;;;;;;;28.85;12.35;;;5.50;99.90;;;;;;5054207;28;20024;-61
2022/03/27 05:05:11;;;;;;;21.10;10.90;;;5.50;99.90;;;;;;5053155;28;20491;-60
2022/03/27 05:07:38;;;;;;;26.70;12.05;;;5.50;99.90;;;;;;5054326;28;20029;-61
2022/03/27 05:10:08;;;;;;;25.85;11.32;;;5.50;99.90;;;;;;5053350;28;20031;-61
2022/03/27 05:12:34;;;;;;;30.00;13.27;;;5.50;99.90;;;;;;5054149;28;20025;-61
2022/03/27 05:15:00;;;;;;;27.20;12.18;;;5.50;99.90;;;;;;5053058;28;20021;-60
2022/03/27 05:17:25;;;;;;;29.88;12.52;;;5.50;99.90;;;;;;5053246;28;20025;-61
2022/03/27 05:19:51;;;;;;;31.40;14.10;;;5.50;99.90;;;;;;5053176;28;20070;-60
2022/03/27 05:22:17;;;;;;;32.97;13.90;;;5.50;99.90;;;;;;5053993;28;20025;-60
2022/03/27 05:24:43;;;;;;;31.63;15.68;;;5.50;99.90;;;;;;5052745;28;20471;-60
2022/03/27 05:27:08;;;;;;;23.08;12.88;;;5.50;99.90;;;;;;5053953;28;20021;-59
2022/03/27 05:29:34;;;;;;;27.80;11.57;;;5.60;99.90;;;;;;5052748;28;20028;-61
2022/03/27 05:32:00;;;;;;;23.98;11.80;;;5.50;99.90;;;;;;5052980;28;20091;-60
2022/03/27 05:34:26;;;;;;;28.52;11.48;;;5.50;99.90;;;;;;5054240;28;20025;-60
2022/03/27 05:36:51;;;;;;;27.70;12.18;;;5.70;99.90;;;;;;5054025;28;20060;-60
2022/03/27 05:39:17;;;;;;;28.70;11.88;;;5.90;99.90;;;;;;5052688;28;20025;-61
2022/03/27 05:41:43;;;;;;;33.95;11.38;;;6.10;99.90;;;;;;5052498;28;20035;-61
2022/03/27 05:44:09;;;;;;;23.10;11.18;;;6.40;99.90;;;;;;5052838;28;20021;-61
2022/03/27 05:46:35;;;;;;;28.35;11.10;;;6.90;99.90;;;;;;5052670;28;20107;-61
2022/03/27 05:49:01;;;;;;;25.23;12.48;;;7.20;99.90;;;;;;5053677;28;20541;-61
2022/03/27 05:51:27;;;;;;;24.90;11.70;;;7.50;99.90;;;;;;5054006;28;20048;-61
2022/03/27 05:53:52;;;;;;;26.15;12.25;;;8.00;99.90;;;;;;5053847;28;20021;-59
2022/03/27 05:56:18;;;;;;;25.65;12.55;;;8.30;99.90;;;;;;5054141;28;20032;-61
2022/03/27 05:58:44;;;;;;;30.30;11.05;;;8.40;99.90;;;;;;5053522;28;20067;-60
2022/03/27 06:01:09;;;;;;;27.63;12.65;;;8.50;99.90;;;;;;5052004;28;20127;-59
2022/03/27 06:03:35;;;;;;;37.33;15.95;;;8.80;99.90;;;;;;5053330;28;20033;-55
2022/03/27 06:06:02;;;;;;;35.00;15.02;;;8.80;99.90;;;;;;5052117;28;20032;-59
2022/03/27 06:08:27;;;;;;;27.42;13.45;;;8.70;99.90;;;;;;5052369;28;20025;-58
2022/03/27 06:10:53;;;;;;;28.85;11.90;;;8.50;99.90;;;;;;5052030;28;20025;-60
2022/03/27 06:13:19;;;;;;;22.92;11.18;;;8.60;99.90;;;;;;5053386;28;20025;-59
2022/03/27 06:15:46;;;;;;;20.85;10.20;;;9.00;99.90;;;;;;5052979;28;20024;-59
2022/03/27 06:18:12;;;;;;;25.35;12.60;;;9.70;99.90;;;;;;5052009;28;20021;-59
2022/03/27 06:20:39;;;;;;;24.63;10.82;;;10.30;99.90;;;;;;5051996;28;20021;-60
2022/03/27 06:23:06;;;;;;;22.95;11.93;;;10.90;99.90;;;;;;5053190;28;20025;-60
2022/03/27 06:25:33;;;;;;;24.70;11.88;;;11.40;99.90;;;;;;5052057;28;20016;-60
2022/03/27 06:27:59;;;;;;;22.65;11.30;;;11.80;99.90;;;;;;5053509;28;20021;-60
2022/03/27 06:30:28;;;;;;;21.45;11.55;;;12.00;99.90;;;;;;5053242;28;20078;-57
2022/03/27 06:32:54;;;;;;;24.63;12.40;;;12.60;99.90;;;;;;5053106;28;20025;-60
2022/03/27 06:35:22;;;;;;;23.15;12.20;;;13.40;99.90;;;;;;5052150;28;20033;-58
2022/03/27 06:37:48;;;;;;;25.60;13.00;;;14.00;99.90;;;;;;5052079;28;20040;-59
2022/03/27 06:40:15;;;;;;;34.13;16.60;;;14.50;99.90;;;;;;5051915;28;20053;-59
2022/03/27 06:42:44;;;;;;;29.13;15.55;;;15.00;99.90;;;;;;5051758;28;20029;-60
2022/03/27 06:45:12;;;;;;;28.77;13.15;;;15.70;99.90;;;;;;5052630;28;20017;-59
2022/03/27 06:47:38;;;;;;;26.17;14.02;;;16.00;99.90;;;;;;5052892;28;20021;-59
2022/03/27 06:50:05;;;;;;;24.35;13.50;;;16.50;99.90;;;;;;5051821;28;20021;-59
2022/03/27 06:52:31;;;;;;;22.42;12.77;;;16.90;99.90;;;;;;5055710;28;20060;-60
2022/03/27 06:54:58;;;;;;;21.42;12.57;;;17.40;99.90;;;;;;5056917;28;20063;-60
2022/03/27 06:57:24;;;;;;;26.42;14.50;;;17.90;99.90;;;;;;5055575;28;20040;-60
2022/03/27 07:05:20;;;;;;;23.60;14.98;;;19.20;96.10;;;;;;5057276;28;20063;-61
2022/03/27 07:07:46;;;;;;;24.50;14.23;;;19.60;94.20;;;;;;5055704;28;20074;-62
2022/03/27 07:10:12;;;;;;;23.45;13.75;;;19.60;93.80;;;;;;5055393;28;20025;-61
2022/03/27 07:12:38;;;;;;;21.58;12.43;;;19.70;94.00;;;;;;5055530;28;20021;-61
2022/03/27 07:15:05;;;;;;;27.42;15.25;;;20.20;93.30;;;;;;5057344;28;20029;-61
2022/03/27 07:17:31;;;;;;;19.55;13.05;;;20.70;91.10;;;;;;5056439;28;20379;-61
2022/03/27 07:19:57;;;;;;;21.80;13.98;;;20.70;91.60;;;;;;5055575;28;20027;-62
2022/03/27 07:22:22;;;;;;;23.30;14.40;;;21.00;90.90;;;;;;5055107;28;20116;-62
2022/03/27 07:24:48;;;;;;;24.67;15.95;;;21.30;88.70;;;;;;5055184;28;20116;-61
2022/03/27 07:27:14;;;;;;;23.48;14.07;;;20.90;88.80;;;;;;5056304;28;20032;-62
2022/03/27 07:29:40;;;;;;;21.92;13.50;;;21.60;88.50;;;;;;5055137;28;20111;-62
2022/03/27 07:32:07;;;;;;;22.33;14.68;;;22.70;86.20;;;;;;5055056;28;20051;-62
2022/03/27 07:34:35;;;;;;;19.50;12.45;;;23.40;82.20;;;;;;5056237;28;20028;-60
2022/03/27 07:37:02;;;;;;;21.98;14.15;;;24.10;82.00;;;;;;5054960;28;20052;-65
2022/03/27 07:39:28;;;;;;;17.58;12.70;;;24.40;76.90;;;;;;5054898;28;20127;-63
2022/03/27 07:41:54;;;;;;;20.10;13.73;;;25.50;76.50;;;;;;5055743;28;20085;-62
2022/03/27 07:44:20;;;;;;;22.38;15.02;;;25.70;73.20;;;;;;5056296;28;20025;-63
2022/03/27 07:46:46;;;;;;;25.05;13.80;;;24.70;72.90;;;;;;5055878;28;20017;-63
2022/03/27 07:49:35;;;;;;;20.75;14.50;;;24.50;74.70;;;;;;5055955;28;20017;-64
2022/03/27 07:52:00;;;;;;;21.73;14.80;;;25.00;73.00;;;;;;5054610;28;20047;-64
2022/03/27 07:54:26;;;;;;;18.38;13.00;;;25.10;72.00;;;;;;5054676;28;20029;-64
2022/03/27 07:56:52;;;;;;;20.42;14.30;;;25.30;73.50;;;;;;5056034;28;20016;-65
2022/03/27 07:59:18;;;;;;;20.90;13.73;;;26.10;72.30;;;;;;5055977;28;20017;-65
2022/03/27 08:01:44;;;;;;;20.30;14.68;;;26.70;70.60;;;;;;5053902;28;20032;-64
2022/03/27 08:04:10;;;;;;;19.48;13.75;;;27.70;68.00;;;;;;5055253;28;20040;-66
2022/03/27 08:06:36;;;;;;;19.63;14.65;;;27.40;67.90;;;;;;5054343;28;20021;-65
2022/03/27 08:09:20;;;;;;;20.55;13.68;;;27.60;67.80;;;;;;5055590;28;20028;-66
2022/03/27 08:11:46;;;;;;;19.88;14.32;;;28.00;66.40;;;;;;5055599;28;20096;-65
2022/03/27 08:14:11;;;;;;;20.40;14.40;;;28.40;65.60;;;;;;5054598;28;20155;-66
2022/03/27 08:16:37;;;;;;;23.65;14.43;;;28.70;64.70;;;;;;5054468;28;20074;-63
2022/03/27 08:19:03;;;;;;;20.63;12.35;;;28.40;64.30;;;;;;5054065;28;20021;-63
2022/03/27 08:21:30;;;;;;;20.08;14.27;;;29.40;64.40;;;;;;5055306;28;20037;-63
2022/03/27 08:23:55;;;;;;;19.77;14.93;;;29.70;61.60;;;;;;5055533;28;20024;-63
2022/03/27 08:29:05;;;;;;;19.17;12.80;;;28.00;63.10;;;;;;5055855;28;20032;-63
2022/03/27 08:31:32;;;;;;;20.67;15.40;;;28.60;64.40;;;;;;5054257;28;20017;-63
2022/03/27 08:33:58;;;;;;;20.35;14.38;;;29.40;61.80;;;;;;5054328;28;20025;-63
2022/03/27 08:36:25;;;;;;;23.10;14.93;;;28.90;62.30;;;;;;5054685;28;20053;-63
2022/03/27 08:38:50;;;;;;;21.40;13.90;;;29.00;62.30;;;;;;5053827;28;20116;-63
2022/03/27 08:41:16;;;;;;;20.30;15.05;;;29.20;62.50;;;;;;5053703;28;20083;-63
2022/03/27 08:43:43;;;;;;;20.02;13.75;;;29.90;61.60;;;;;;5054874;28;20025;-63
2022/03/27 08:46:11;;;;;;;18.00;13.70;;;30.20;61.10;;;;;;5053505;28;20024;-63
2022/03/27 08:48:37;;;;;;;19.35;13.95;;;31.20;59.80;;;;;;5054432;28;20025;-62
2022/03/27 08:51:18;;;;;;;20.70;14.30;;;31.90;58.80;;;;;;5054367;28;20027;-63
2022/03/27 08:53:56;;;;;;;16.42;12.35;;;32.10;58.80;;;;;;5053594;28;20052;-63
2022/03/27 08:56:23;;;;;;;16.27;13.85;;;31.80;58.20;;;;;;5068063;22;20399;-57
2022/03/27 08:58:48;;;;;;;20.35;15.02;;;32.30;57.30;;;;;;5014201;28;20041;-57
2022/03/27 09:01:15;;;;;;;16.55;13.15;;;33.60;56.00;;;;;;5014479;28;20471;-58
2022/03/27 09:03:41;;;;;;;18.45;14.57;;;34.00;55.60;;;;;;5014659;28;20030;-55
2022/03/27 09:06:08;;;;;;;18.10;12.13;;;34.40;54.00;;;;;;5014936;28;20025;-56
2022/03/27 09:08:34;;;;;;;17.70;13.55;;;34.70;53.50;;;;;;5014875;28;20453;-59
2022/03/27 09:11:01;;;;;;;17.65;14.05;;;34.20;53.20;;;;;;5013549;28;20022;-59
2022/03/27 09:13:27;;;;;;;19.60;14.90;;;33.70;53.80;;;;;;5013177;28;20395;-60
2022/03/27 09:16:00;;;;;;;16.05;13.10;;;33.70;53.40;;;;;;5013239;28;20022;-60
2022/03/27 09:18:58;;;;;;;18.40;13.80;;;33.80;53.90;;;;;;5014399;28;20022;-61
2022/03/27 09:21:29;;;;;;;17.67;12.82;;;33.70;53.00;;;;;;5013187;28;20025;-60
2022/03/27 09:23:58;;;;;;;15.00;12.50;;;33.50;53.20;;;;;;5013122;28;20026;-60
2022/03/27 09:26:24;;;;;;;14.30;12.63;;;33.70;53.50;;;;;;5014369;28;20076;-61
2022/03/27 09:28:54;;;;;;;16.27;11.98;;;34.50;52.80;;;;;;5014434;28;20030;-61
2022/03/27 09:31:27;;;;;;;15.70;11.98;;;34.20;52.60;;;;;;5013194;28;20034;-60
2022/03/27 09:34:11;;;;;;;14.73;11.93;;;34.10;52.30;;;;;;5013769;28;20033;-61
2022/03/27 09:36:42;;;;;;;15.27;10.50;;;34.70;51.90;;;;;;5013897;28;20029;-61
2022/03/27 09:39:13;;;;;;;11.98;9.77;;;35.20;51.50;;;;;;5013894;28;20022;-60
2022/03/27 09:41:59;;;;;;;14.35;11.35;;;36.00;52.30;;;;;;5013094;28;20022;-60
2022/03/27 09:44:36;;;;;;;12.43;10.35;;;35.90;50.60;;;;;;5013127;28;20028;-60
2022/03/27 09:47:06;;;;;;;14.25;11.07;;;36.20;49.60;;;;;;5014104;28;20542;-60
2022/03/27 09:49:32;;;;;;;14.82;12.30;;;35.50;51.00;;;;;;5014284;28;20049;-61
2022/03/27 09:51:59;;;;;;;15.68;12.30;;;35.10;50.20;;;;;;5014039;28;20025;-61
2022/03/27 09:54:27;;;;;;;18.73;12.10;;;34.50;50.60;;;;;;5012845;28;20120;-61
2022/03/27 09:56:54;;;;;;;15.93;13.18;;;34.50;51.10;;;;;;5012559;28;20033;-61
2022/03/27 09:59:34;;;;;;;17.48;12.13;;;35.10;50.90;;;;;;5012712;28;20029;-61
2022/03/27 10:02:19;;;;;;;14.90;12.88;;;34.80;51.60;;;;;;5012718;28;20063;-61
2022/03/27 10:04:59;;;;;;;14.85;12.95;;;34.40;51.10;;;;;;5013829;28;20060;-60
2022/03/27 10:07:26;;;;;;;14.50;11.02;;;33.70;52.20;;;;;;5013794;28;20060;-60
2022/03/27 10:09:53;;;;;;;18.52;13.10;;;33.90;52.40;;;;;;5013439;28;20099;-61
2022/03/27 10:12:28;;;;;;;16.75;11.80;;;33.50;52.10;;;;;;5013263;28;20030;-60
2022/03/27 10:14:57;;;;;;;17.05;13.65;;;32.90;52.50;;;;;;5013446;28;20072;-60
2022/03/27 10:17:26;;;;;;;13.70;10.88;;;32.80;53.10;;;;;;5012719;28;20084;-61
2022/03/27 10:19:56;;;;;;;18.25;13.98;;;32.30;53.30;;;;;;5012502;28;20033;-60
2022/03/27 10:22:22;;;;;;;18.52;12.98;;;30.80;54.20;;;;;;5012674;28;20116;-61
2022/03/27 10:24:51;;;;;;;16.92;12.57;;;30.40;56.00;;;;;;5013326;28;20071;-61
2022/03/27 10:27:19;;;;;;;17.13;13.43;;;30.40;56.20;;;;;;5012049;28;20404;-61
2022/03/27 10:29:45;;;;;;;14.88;10.23;;;30.10;56.00;;;;;;5012522;28;20025;-61
2022/03/27 10:32:12;;;;;;;20.15;14.73;;;30.10;56.30;;;;;;5012207;28;20034;-61
2022/03/27 10:34:56;;;;;;;22.35;13.98;;;29.90;55.80;;;;;;5012294;28;20408;-60
2022/03/27 10:37:29;;;;;;;14.07;10.85;;;27.90;57.40;;;;;;5012119;28;20028;-61
2022/03/27 10:40:23;;;;;;;20.48;13.60;;;27.50;59.40;;;;;;5013463;28;20022;-61
2022/03/27 10:43:00;;;;;;;22.30;12.98;;;26.90;60.10;;;;;;5012406;28;20033;-61
2022/03/27 10:45:26;;;;;;;20.10;12.93;;;26.70;60.10;;;;;;5013448;28;20033;-60
2022/03/27 10:48:12;;;;;;;18.25;12.88;;;26.10;60.80;;;;;;5012048;28;20061;-60
2022/03/27 10:50:47;;;;;;;19.98;12.60;;;25.60;62.90;;;;;;5012101;28;20022;-60
2022/03/27 10:53:13;;;;;;;18.05;11.55;;;24.90;63.00;;;;;;5013232;28;20030;-60
2022/03/27 10:55:44;;;;;;;18.38;12.02;;;24.40;64.40;;;;;;5013324;28;20018;-61
2022/03/27 10:58:40;;;;;;;17.95;11.68;;;24.50;64.90;;;;;;5014245;28;20030;-61
2022/03/27 11:01:08;;;;;;;19.30;11.05;;;25.10;65.00;;;;;;5012617;28;20054;-61
2022/03/27 11:03:48;;;;;;;18.50;11.63;;;25.70;63.50;;;;;;5012266;28;20500;-61
2022/03/27 11:06:26;;;;;;;20.92;12.30;;;26.00;63.00;;;;;;5012021;28;20492;-61
2022/03/27 11:08:53;;;;;;;15.35;9.50;;;25.80;61.60;;;;;;5011936;28;20026;-61
2022/03/27 11:11:38;;;;;;;17.33;11.30;;;25.50;63.90;;;;;;5013392;28;20100;-61
2022/03/27 11:14:08;;;;;;;16.63;11.48;;;25.70;63.90;;;;;;5011901;28;20040;-61
2022/03/27 11:16:54;;;;;;;19.40;11.07;;;25.80;63.30;;;;;;5011795;28;20076;-61
2022/03/27 11:19:42;;;;;;;21.05;11.93;;;26.00;63.70;;;;;;5012884;28;20041;-61
2022/03/27 11:22:40;;;;;;;14.18;10.38;;;25.10;63.60;;;;;;5013047;28;20026;-61
2022/03/27 11:25:36;;;;;;;20.90;11.85;;;24.90;65.70;;;;;;5011964;28;20034;-61
2022/03/27 11:28:18;;;;;;;19.50;9.93;;;24.80;64.50;;;;;;5011680;28;20026;-61
2022/03/27 11:30:49;;;;;;;;;;;24.70;65.90;;;;;;5013498;28;20048;-61
2022/03/27 11:33:19;;;;;;;17.95;10.50;;;24.90;65.10;;;;;;5012898;28;19913;-61
2022/03/27 11:36:11;;;;;;;15.38;10.30;;;24.80;65.10;;;;;;5012886;28;20022;-61
2022/03/27 11:38:46;;;;;;;16.80;10.45;;;25.00;65.00;;;;;;5014325;28;20018;-61
2022/03/27 11:41:22;;;;;;;16.63;11.18;;;24.10;66.20;;;;;;5015177;28;20018;-61
2022/03/27 11:43:47;;;;;;;23.23;11.40;;;24.00;66.50;;;;;;5015148;28;20021;-61
2022/03/27 11:46:25;;;;;;;13.60;10.23;;;23.90;67.40;;;;;;5014966;28;20033;-61
2022/03/27 11:48:54;;;;;;;18.80;11.60;;;23.70;68.20;;;;;;5016197;28;20022;-61
2022/03/27 11:51:20;;;;;;;17.83;10.50;;;23.20;67.90;;;;;;5016278;28;20029;-61
2022/03/27 11:53:45;;;;;;;16.70;11.18;;;23.30;68.70;;;;;;5016112;28;20037;-61
2022/03/27 11:56:11;;;;;;;15.80;9.70;;;23.20;69.70;;;;;;5015231;28;20044;-60
2022/03/27 11:58:38;;;;;;;14.63;9.45;;;23.50;69.30;;;;;;5014917;28;20049;-61
2022/03/27 12:01:09;;;;;;;16.00;9.93;;;23.60;68.50;;;;;;5015565;28;20088;-60
2022/03/27 12:03:36;;;;;;;25.20;10.80;;;23.40;69.20;;;;;;5015501;28;20496;-61
2022/03/27 12:06:08;;;;;;;15.93;10.55;;;22.70;69.80;;;;;;5015424;28;20026;-61
2022/03/27 12:08:39;;;;;;;18.25;10.82;;;22.40;70.70;;;;;;5015120;28;20030;-61
2022/03/27 12:11:06;;;;;;;;;;;22.40;70.40;;;;;;5015693;28;20117;-61
2022/03/27 12:13:43;;;;;;;14.18;9.52;;;22.50;70.60;;;;;;5014534;28;19916;-60
2022/03/27 12:16:20;;;;;;;14.45;8.80;;;22.30;71.00;;;;;;5015986;28;20018;-61
2022/03/27 12:18:50;;;;;;;14.80;9.35;;;22.50;70.90;;;;;;5014521;28;20022;-61
2022/03/27 12:21:20;;;;;;;16.70;9.98;;;22.80;70.40;;;;;;5014562;28;20022;-60
2022/03/27 12:24:02;;;;;;;17.08;9.45;;;22.60;69.90;;;;;;5015144;28;20034;-60
2022/03/27 12:29:43;;;;;;;15.07;9.38;;;22.40;70.50;;;;;;5015588;28;20069;-60
2022/03/27 12:32:21;;;;;;;14.43;8.90;;;22.20;72.00;;;;;;5014428;28;20108;-60
2022/03/27 12:34:53;;;;;;;18.35;9.60;;;21.80;72.90;;;;;;5015076;28;20095;-60
2022/03/27 12:37:26;;;;;;;14.68;9.05;;;22.10;73.90;;;;;;5014687;28;20052;-61
2022/03/27 12:39:51;;;;;;;12.43;8.07;;;21.70;73.00;;;;;;5014096;28;20026;-60
2022/03/27 12:42:42;;;;;;;12.70;8.35;;;21.30;74.50;;;;;;5014283;28;20054;-60
2022/03/27 12:45:10;;;;;;;14.00;8.48;;;21.00;74.70;;;;;;5013923;28;20049;-60
2022/03/27 12:47:55;;;;;;;12.70;7.00;;;20.80;75.20;;;;;;5014137;28;20021;-60
2022/03/27 12:50:41;;;;;;;13.15;7.20;;;20.70;75.90;;;;;;5015315;28;20025;-60
2022/03/27 12:53:12;;;;;;;12.70;7.05;;;21.10;74.70;;;;;;5014945;28;20410;-61